createdAt,value
2024-05-09T00:00:37.918Z,13.73
2024-05-09T00:03:47.293Z,13.73
2024-05-09T00:06:52.967Z,13.71
2024-05-09T00:09:57.351Z,13.69
2024-05-09T00:13:01.865Z,13.73
2024-05-09T00:16:06.762Z,13.72
2024-05-09T00:19:13.959Z,13.68
2024-05-09T00:22:18.607Z,13.70
2024-05-09T00:25:23.126Z,13.68
2024-05-09T00:28:28.414Z,13.71
2024-05-09T00:31:32.865Z,13.68
2024-05-09T00:34:39.802Z,13.68
2024-05-09T00:37:44.120Z,13.69
2024-05-09T00:40:48.526Z,13.69
2024-05-09T00:43:53.075Z,13.72
2024-05-09T00:46:58.381Z,13.65
2024-05-09T00:50:10.131Z,13.68
2024-05-09T00:53:21.524Z,13.71
2024-05-09T00:56:26.158Z,13.70
2024-05-09T00:59:32.552Z,13.67
2024-05-09T01:02:36.958Z,13.69
2024-05-09T01:05:44.512Z,13.67
2024-05-09T01:08:48.942Z,13.70
2024-05-09T01:11:53.567Z,13.71
2024-05-09T01:14:58.100Z,13.67
2024-05-09T01:18:04.661Z,13.70
2024-05-09T01:21:13.062Z,13.68
2024-05-09T01:24:20.092Z,13.68
2024-05-09T01:27:24.428Z,13.64
2024-05-09T01:30:34.431Z,13.66
2024-05-09T01:33:41.449Z,13.65
2024-05-09T01:36:45.960Z,13.69
2024-05-09T01:39:52.900Z,13.68
2024-05-09T01:42:57.266Z,13.66
2024-05-09T01:46:01.524Z,13.66
2024-05-09T01:49:06.070Z,13.64
2024-05-09T01:52:10.418Z,13.63
2024-05-09T01:55:17.455Z,13.62
2024-05-09T01:58:21.899Z,13.65
2024-05-09T02:01:26.218Z,13.65
2024-05-09T02:04:30.856Z,13.68
2024-05-09T02:07:35.199Z,13.67
2024-05-09T02:10:42.182Z,13.67
2024-05-09T02:13:46.617Z,13.63
2024-05-09T02:16:51.143Z,13.68
2024-05-09T02:19:55.568Z,13.63
2024-05-09T02:23:00.413Z,13.62
2024-05-09T02:26:07.760Z,13.62
2024-05-09T02:29:12.132Z,13.66
2024-05-09T02:32:16.576Z,13.65
2024-05-09T02:35:20.874Z,13.66
2024-05-09T02:38:25.160Z,13.63
2024-05-09T02:41:29.571Z,13.56
2024-05-09T02:44:34.227Z,13.61
2024-05-09T02:47:38.670Z,13.63
2024-05-09T02:50:40.812Z,13.58
2024-05-09T02:53:45.411Z,13.61
2024-05-09T02:56:49.707Z,13.62
2024-05-09T02:59:53.974Z,13.64
2024-05-09T03:02:55.716Z,13.57
2024-05-09T03:06:00.085Z,13.58
2024-05-09T03:09:04.844Z,13.56
2024-05-09T03:12:12.630Z,13.60
2024-05-09T03:15:14.725Z,13.60
2024-05-09T03:18:20.084Z,13.61
2024-05-09T03:21:23.159Z,13.60
2024-05-09T03:24:27.710Z,13.62
2024-05-09T03:27:32.173Z,13.60
2024-05-09T03:30:42.638Z,13.57
2024-05-09T03:33:48.261Z,13.60
2024-05-09T03:36:57.385Z,13.62
2024-05-09T03:40:02.938Z,13.61
2024-05-09T03:43:20.620Z,13.57
2024-05-09T03:46:25.555Z,13.60
2024-05-09T03:49:28.221Z,13.57
2024-05-09T03:52:33.375Z,13.59
2024-05-09T03:55:35.089Z,13.60
2024-05-09T03:58:42.116Z,13.61
2024-05-09T04:01:44.258Z,13.58
2024-05-09T04:04:51.633Z,13.58
2024-05-09T04:07:53.745Z,13.58
2024-05-09T04:11:01.600Z,13.57
2024-05-09T04:14:06.032Z,13.58
2024-05-09T04:17:11.826Z,13.56
2024-05-09T04:20:28.726Z,13.60
2024-05-09T04:23:41.644Z,13.58
2024-05-09T04:26:44.898Z,13.56
2024-05-09T04:29:51.850Z,13.57
2024-05-09T04:32:53.683Z,13.57
2024-05-09T04:35:58.662Z,13.58
2024-05-09T04:39:00.415Z,13.57
2024-05-09T04:42:04.862Z,13.58
2024-05-09T04:45:10.374Z,13.55
2024-05-09T04:48:17.717Z,13.59
2024-05-09T04:51:19.959Z,13.56
2024-05-09T04:54:33.722Z,13.56
2024-05-09T04:57:41.164Z,13.55
2024-05-09T05:00:50.636Z,13.55
2024-05-09T05:03:52.697Z,13.58
2024-05-09T05:07:01.372Z,13.53
2024-05-09T05:10:11.744Z,13.55
2024-05-09T05:13:18.495Z,13.57
2024-05-09T05:16:26.130Z,13.53
2024-05-09T05:19:28.064Z,13.56
2024-05-09T05:22:32.457Z,13.57
2024-05-09T05:25:34.177Z,13.55
2024-05-09T05:28:39.262Z,13.54
2024-05-09T05:31:43.578Z,13.56
2024-05-09T05:34:47.895Z,13.57
2024-05-09T05:37:52.310Z,13.55
2024-05-09T05:40:54.074Z,13.52
2024-05-09T05:43:58.431Z,13.55
2024-05-09T05:47:03.040Z,13.55
2024-05-09T05:50:20.440Z,13.57
2024-05-09T05:53:31.188Z,13.55
2024-05-09T05:56:33.032Z,13.55
2024-05-09T05:59:37.375Z,13.56
2024-05-09T06:02:44.510Z,13.55
2024-05-09T06:05:49.094Z,13.53
2024-05-09T06:08:53.508Z,13.54
2024-05-09T06:11:55.389Z,13.55
2024-05-09T06:15:00.865Z,13.55
2024-05-09T06:18:11.982Z,13.56
2024-05-09T06:21:19.390Z,13.52
2024-05-09T06:24:21.193Z,13.57
2024-05-09T06:27:25.566Z,13.52
2024-05-09T06:30:36.578Z,13.53
2024-05-09T06:33:46.688Z,13.57
2024-05-09T06:36:48.680Z,13.56
2024-05-09T06:39:52.980Z,13.54
2024-05-09T06:42:57.557Z,13.56
2024-05-09T06:46:01.855Z,13.55
2024-05-09T06:49:08.444Z,13.57
2024-05-09T06:52:13.981Z,13.53
2024-05-09T06:55:15.851Z,13.56
2024-05-09T06:58:20.225Z,13.53
2024-05-09T07:01:24.446Z,13.56
2024-05-09T07:04:31.442Z,13.52
2024-05-09T07:07:35.874Z,13.50
2024-05-09T07:10:38.309Z,13.56
2024-05-09T07:13:42.660Z,13.56
2024-05-09T07:16:47.065Z,13.54
2024-05-09T07:19:51.548Z,13.53
2024-05-09T07:22:55.921Z,13.51
2024-05-09T07:25:58.716Z,13.52
2024-05-09T07:29:03.093Z,13.52
2024-05-09T07:32:06.763Z,13.56
2024-05-09T07:35:13.971Z,13.53
2024-05-09T07:38:15.751Z,13.51
2024-05-09T07:41:20.083Z,13.57
2024-05-09T07:44:21.787Z,13.54
2024-05-09T07:48:56.972Z,13.55
2024-05-09T07:52:37.906Z,13.56
2024-05-09T07:54:15.207Z,13.53
2024-05-09T07:57:20.039Z,13.53
2024-05-09T08:00:29.516Z,13.54
2024-05-09T08:03:35.947Z,13.56
2024-05-09T08:06:40.364Z,13.53
2024-05-09T08:09:44.638Z,13.53
2024-05-09T08:12:46.501Z,13.53
2024-05-09T08:15:51.810Z,13.55
2024-05-09T08:18:53.938Z,13.51
2024-05-09T08:22:06.854Z,13.52
2024-05-09T08:25:10.687Z,13.54
2024-05-09T08:28:16.550Z,13.47
2024-05-09T08:31:21.022Z,13.55
2024-05-09T08:34:22.975Z,13.51
2024-05-09T08:37:34.937Z,13.52
2024-05-09T08:40:39.603Z,13.54
2024-05-09T08:43:44.158Z,13.54
2024-05-09T08:46:47.653Z,13.55
2024-05-09T08:49:58.367Z,13.50
2024-05-09T08:53:02.798Z,13.55
2024-05-09T08:56:12.208Z,13.51
2024-05-09T08:59:20.814Z,13.55
2024-05-09T09:02:25.353Z,13.53
2024-05-09T09:05:31.204Z,13.52
2024-05-09T09:08:41.988Z,13.51
2024-05-09T09:11:43.672Z,13.50
2024-05-09T09:14:47.970Z,13.51
2024-05-09T09:17:54.765Z,13.53
2024-05-09T09:20:59.233Z,13.50
2024-05-09T09:24:03.741Z,13.50
2024-05-09T09:27:08.621Z,13.53
2024-05-09T09:30:22.949Z,13.51
2024-05-09T09:33:36.161Z,13.50
2024-05-09T09:36:40.990Z,13.49
2024-05-09T09:39:49.210Z,13.50
2024-05-09T09:43:00.269Z,13.53
2024-05-09T09:46:09.553Z,13.49
2024-05-09T09:49:14.533Z,13.48
2024-05-09T09:52:19.911Z,13.53
2024-05-09T09:55:25.819Z,13.54
2024-05-09T09:58:32.497Z,13.53
2024-05-09T10:01:35.990Z,13.47
2024-05-09T10:04:41.864Z,13.48
2024-05-09T10:07:46.920Z,13.49
2024-05-09T10:10:55.738Z,13.50
2024-05-09T10:14:00.668Z,13.50
2024-05-09T10:17:06.196Z,13.50
2024-05-09T10:20:18.259Z,13.50
2024-05-09T10:23:25.713Z,13.52
2024-05-09T10:26:41.198Z,13.51
2024-05-09T10:29:54.930Z,13.50
2024-05-09T10:32:59.355Z,13.50
2024-05-09T10:36:03.302Z,13.51
2024-05-09T10:39:08.039Z,13.51
2024-05-09T10:42:12.665Z,13.46
2024-05-09T10:45:19.228Z,13.50
2024-05-09T10:48:21.402Z,13.48
2024-05-09T10:51:27.436Z,13.48
2024-05-09T10:54:35.664Z,13.52
2024-05-09T10:57:46.273Z,13.45
2024-05-09T11:00:48.269Z,13.47
2024-05-09T11:03:54.082Z,13.46
2024-05-09T11:06:57.467Z,13.45
2024-05-09T11:10:02.242Z,13.50
2024-05-09T11:13:06.734Z,13.51
2024-05-09T11:16:20.196Z,13.50
2024-05-09T11:19:22.368Z,13.47
2024-05-09T11:22:27.318Z,13.47
2024-05-09T11:25:30.475Z,13.49
2024-05-09T11:28:37.416Z,13.50
2024-05-09T11:31:45.748Z,13.47
2024-05-09T11:34:50.086Z,13.46
2024-05-09T11:37:51.879Z,13.45
2024-05-09T11:40:56.319Z,13.44
2024-05-09T11:44:00.569Z,13.45
2024-05-09T11:47:05.419Z,13.46
2024-05-09T11:50:08.332Z,13.45
2024-05-09T11:53:17.049Z,13.47
2024-05-09T11:56:22.153Z,13.44
2024-05-09T11:59:26.588Z,13.47
2024-05-09T12:02:30.922Z,13.48
2024-05-09T12:05:33.996Z,13.48
2024-05-09T12:08:38.995Z,13.48
2024-05-09T12:11:40.744Z,13.47
2024-05-09T12:14:47.649Z,13.50
2024-05-09T12:17:50.949Z,13.48
2024-05-09T12:20:55.466Z,13.47
2024-05-09T12:23:59.797Z,13.47
2024-05-09T12:27:01.487Z,13.45
2024-05-09T12:30:14.171Z,13.50
2024-05-09T12:33:19.919Z,13.43
2024-05-09T12:36:21.839Z,13.47
2024-05-09T12:39:26.057Z,13.49
2024-05-09T12:42:29.086Z,13.43
2024-05-09T12:45:37.505Z,13.46
2024-05-09T12:48:39.622Z,13.45
2024-05-09T12:51:44.166Z,13.45
2024-05-09T12:54:48.456Z,13.46
2024-05-09T12:57:50.443Z,13.47
2024-05-09T13:00:57.399Z,13.47
2024-05-09T13:04:02.014Z,13.48
2024-05-09T13:07:06.396Z,13.44
2024-05-09T13:10:16.289Z,13.42
2024-05-09T13:13:24.408Z,13.46
2024-05-09T13:16:29.123Z,13.47
2024-05-09T13:19:33.675Z,13.45
2024-05-09T13:22:35.839Z,13.48
2024-05-09T13:25:40.471Z,13.45
2024-05-09T13:28:42.650Z,13.48
2024-05-09T13:31:50.467Z,13.47
2024-05-09T13:34:52.643Z,13.46
2024-05-09T13:37:57.442Z,13.49
2024-05-09T13:40:59.131Z,13.49
2024-05-09T13:44:03.608Z,13.50
2024-05-09T13:47:08.709Z,13.47
2024-05-09T13:50:20.579Z,13.47
2024-05-09T13:53:29.768Z,13.47
2024-05-09T13:56:34.058Z,13.43
2024-05-09T13:59:35.869Z,13.46
2024-05-09T14:02:43.487Z,13.48
2024-05-09T14:05:48.257Z,13.46
2024-05-09T14:08:52.708Z,13.48
2024-05-09T14:11:54.513Z,13.48
2024-05-09T14:14:58.886Z,13.45
2024-05-09T14:18:07.013Z,13.50
2024-05-09T14:21:09.648Z,13.46
2024-05-09T14:24:13.884Z,13.43
2024-05-09T14:27:15.630Z,13.48
2024-05-09T14:30:30.110Z,13.50
2024-05-09T14:33:42.901Z,13.48
2024-05-09T14:36:44.788Z,13.46
2024-05-09T14:39:49.158Z,13.46
2024-05-09T14:42:50.937Z,13.51
2024-05-09T14:45:55.859Z,13.48
2024-05-09T14:49:00.636Z,13.48
2024-05-09T14:52:05.327Z,13.51
2024-05-09T14:55:10.113Z,13.48
2024-05-09T14:58:16.575Z,13.47
2024-05-09T15:01:25.435Z,13.47
2024-05-09T15:04:32.016Z,13.47
2024-05-09T15:07:38.274Z,13.49
2024-05-09T15:10:41.473Z,13.49
2024-05-09T15:13:48.598Z,13.49
2024-05-09T15:16:50.831Z,13.47
2024-05-09T15:19:59.038Z,13.52
2024-05-09T15:23:01.865Z,13.50
2024-05-09T15:26:07.139Z,13.48
2024-05-09T15:29:09.338Z,13.50
2024-05-09T15:32:14.781Z,13.49
2024-05-09T15:35:22.886Z,13.50
2024-05-09T15:38:28.479Z,13.50
2024-05-09T15:41:31.396Z,13.53
2024-05-09T15:44:36.991Z,13.50
2024-05-09T15:47:41.725Z,13.50
2024-05-09T15:50:46.925Z,13.49
2024-05-09T15:53:51.605Z,13.49
2024-05-09T15:56:56.131Z,13.50
2024-05-09T16:00:00.680Z,13.51
2024-05-09T16:03:02.483Z,13.52
2024-05-09T16:06:09.439Z,13.47
2024-05-09T16:09:11.196Z,13.52
2024-05-09T16:12:15.800Z,13.51
2024-05-09T16:15:17.595Z,13.50
2024-05-09T16:18:22.240Z,13.50
2024-05-09T16:21:26.488Z,13.49
2024-05-09T16:24:30.840Z,13.53
2024-05-09T16:27:35.332Z,13.51
2024-05-09T16:30:37.184Z,13.52
2024-05-09T16:33:41.723Z,13.53
2024-05-09T16:36:46.266Z,13.51
2024-05-09T16:39:50.643Z,13.52
2024-05-09T16:42:55.065Z,13.55
2024-05-09T16:45:57.109Z,13.48
2024-05-09T16:49:01.543Z,13.55
2024-05-09T16:52:06.735Z,13.51
2024-05-09T16:55:11.162Z,13.55
2024-05-09T16:58:16.018Z,13.53
2024-05-09T17:01:20.782Z,13.52
2024-05-09T17:04:22.660Z,13.54
2024-05-09T17:07:30.192Z,13.52
2024-05-09T17:10:34.247Z,13.54
2024-05-09T17:13:40.893Z,13.52
2024-05-09T17:16:45.347Z,13.53
2024-05-09T17:19:50.207Z,13.53
2024-05-09T17:22:54.695Z,13.53
2024-05-09T17:25:59.005Z,13.52
2024-05-09T17:29:00.792Z,13.56
2024-05-09T17:32:06.301Z,13.51
2024-05-09T17:35:08.241Z,13.54
2024-05-09T17:38:15.439Z,13.57
2024-05-09T17:41:19.678Z,13.56
2024-05-09T17:44:21.327Z,13.53
2024-05-09T17:47:25.719Z,13.52
2024-05-09T17:50:34.913Z,13.52
2024-05-09T17:53:44.079Z,13.54
2024-05-09T17:56:46.087Z,13.57
2024-05-09T17:59:52.042Z,13.52
2024-05-09T18:02:53.784Z,13.56
2024-05-09T18:05:58.174Z,13.52
2024-05-09T18:09:05.587Z,13.55
2024-05-09T18:12:07.832Z,13.54
2024-05-09T18:15:12.151Z,13.54
2024-05-09T18:18:14.138Z,13.55
2024-05-09T18:21:18.592Z,13.58
2024-05-09T18:24:25.661Z,13.55
2024-05-09T18:27:30.941Z,13.55
2024-05-09T18:30:35.931Z,13.54
2024-05-09T18:33:42.215Z,13.57
2024-05-09T18:36:47.688Z,13.55
2024-05-09T18:39:52.160Z,13.56
2024-05-09T18:42:57.019Z,13.57
2024-05-09T18:45:59.268Z,13.55
2024-05-09T18:49:04.038Z,13.56
2024-05-09T18:52:10.838Z,13.54
2024-05-09T18:55:15.540Z,13.53
2024-05-09T18:58:20.572Z,13.57
2024-05-09T19:01:26.275Z,13.51
2024-05-09T19:04:28.761Z,13.58
2024-05-09T19:07:33.304Z,13.55
2024-05-09T19:10:39.445Z,13.56
2024-05-09T19:13:43.852Z,13.52
2024-05-09T19:16:48.349Z,13.54
2024-05-09T19:19:52.553Z,13.55
2024-05-09T19:22:56.927Z,13.52
2024-05-09T19:26:01.420Z,13.52
2024-05-09T19:29:06.967Z,13.56
2024-05-09T19:32:08.782Z,13.55
2024-05-09T19:35:13.205Z,13.58
2024-05-09T19:38:15.045Z,13.58
2024-05-09T19:41:22.593Z,13.58
2024-05-09T19:44:27.139Z,13.56
2024-05-09T19:47:29.081Z,13.58
2024-05-09T19:50:41.214Z,13.55
2024-05-09T19:53:45.801Z,13.56
2024-05-09T19:56:52.773Z,13.53
2024-05-09T19:59:57.147Z,13.58
2024-05-09T20:02:59.001Z,13.58
2024-05-09T20:06:05.258Z,13.54
2024-05-09T20:09:07.212Z,13.58
2024-05-09T20:12:14.359Z,13.53
2024-05-09T20:15:16.348Z,13.60
2024-05-09T20:18:21.082Z,13.58
2024-05-09T20:21:24.048Z,13.58
2024-05-09T20:24:28.347Z,13.59
2024-05-09T20:27:32.965Z,13.55
2024-05-09T20:30:38.289Z,13.53
2024-05-09T20:33:40.170Z,13.59
2024-05-09T20:36:44.799Z,13.53
2024-05-09T20:39:46.549Z,13.58
2024-05-09T20:42:53.509Z,13.58
2024-05-09T20:45:55.298Z,13.56
2024-05-09T20:48:59.894Z,13.56
2024-05-09T20:52:01.632Z,13.57
2024-05-09T20:55:06.056Z,13.57
2024-05-09T20:58:13.809Z,13.59
2024-05-09T21:01:16.033Z,13.54
2024-05-09T21:04:21.081Z,13.55
2024-05-09T21:07:22.919Z,13.52
2024-05-09T21:10:31.551Z,13.56
2024-05-09T21:13:39.820Z,13.58
2024-05-09T21:16:41.641Z,13.58
2024-05-09T21:19:46.108Z,13.56
2024-05-09T21:22:47.768Z,13.58
2024-05-09T21:25:52.020Z,13.54
2024-05-09T21:28:56.326Z,13.60
2024-05-09T21:32:00.891Z,13.56
2024-05-09T21:35:02.605Z,13.56
2024-05-09T21:38:07.860Z,13.57
2024-05-09T21:41:12.989Z,13.56
2024-05-09T21:44:17.471Z,13.57
2024-05-09T21:47:22.988Z,13.53
2024-05-09T21:50:32.384Z,13.54
2024-05-09T21:53:45.307Z,13.57
2024-05-09T21:56:47.316Z,13.58
2024-05-09T21:59:55.405Z,13.57
2024-05-09T22:02:58.132Z,13.59
2024-05-09T22:06:02.568Z,13.58
2024-05-09T22:09:05.588Z,13.60
2024-05-09T22:12:09.922Z,13.56
2024-05-09T22:15:14.358Z,13.56
2024-05-09T22:18:18.865Z,13.57
2024-05-09T22:21:20.669Z,13.56
2024-05-09T22:24:24.999Z,13.60
2024-05-09T22:27:26.742Z,13.60
2024-05-09T22:30:37.955Z,13.57
2024-05-09T22:33:43.987Z,13.58
2024-05-09T22:36:50.026Z,13.57
2024-05-09T22:39:53.853Z,13.60
2024-05-09T22:43:00.362Z,13.57
2024-05-09T22:46:12.671Z,13.57
2024-05-09T22:49:14.939Z,13.60
2024-05-09T22:52:20.334Z,13.56
2024-05-09T22:55:22.612Z,13.58
2024-05-09T22:58:28.723Z,13.57
2024-05-09T23:01:33.320Z,13.59
2024-05-09T23:04:37.972Z,13.59
2024-05-09T23:07:39.856Z,13.58
2024-05-09T23:10:45.343Z,13.57
2024-05-09T23:13:48.386Z,13.56
2024-05-09T23:16:55.483Z,13.55
2024-05-09T23:20:00.191Z,13.58
2024-05-09T23:23:05.154Z,13.55
2024-05-09T23:26:07.063Z,13.56
2024-05-09T23:29:11.629Z,13.57
2024-05-09T23:32:16.490Z,13.56
2024-05-09T23:35:22.216Z,13.57
2024-05-09T23:38:25.015Z,13.56
2024-05-09T23:41:30.183Z,13.60
2024-05-09T23:44:36.176Z,13.57
2024-05-09T23:47:42.463Z,13.57
2024-05-09T23:50:52.396Z,13.60
2024-05-09T23:53:54.359Z,13.58
2024-05-09T23:56:59.719Z,13.56
